createdAt,value
2022-12-17T00:02:27.468Z,92.38
2022-12-17T00:05:12.680Z,92.06
2022-12-17T00:07:58.001Z,92.13
2022-12-17T00:10:43.129Z,92.33
2022-12-17T00:13:41.220Z,92.21
2022-12-17T00:16:26.671Z,92.39
2022-12-17T00:19:11.984Z,92.05
2022-12-17T00:21:56.837Z,92.32
2022-12-17T00:24:42.901Z,92.61
2022-12-17T00:27:28.176Z,92.49
2022-12-17T00:30:12.958Z,92.55
2022-12-17T00:32:57.893Z,91.90
2022-12-17T00:35:42.861Z,92.15
2022-12-17T00:38:37.146Z,92.39
2022-12-17T00:41:23.107Z,92.40
2022-12-17T00:44:08.456Z,92.15
2022-12-17T00:46:54.867Z,92.40
2022-12-17T00:49:41.180Z,92.17
2022-12-17T00:52:45.772Z,91.97
2022-12-17T00:55:31.058Z,92.23
2022-12-17T00:58:16.558Z,91.80
2022-12-17T01:01:01.979Z,91.77
2022-12-17T01:03:47.057Z,92.06
2022-12-17T01:06:32.111Z,91.98
2022-12-17T01:09:17.049Z,92.42
2022-12-17T01:12:01.853Z,92.28
2022-12-17T01:14:47.268Z,92.45
2022-12-17T01:17:32.102Z,91.62
2022-12-17T01:20:16.954Z,91.79
2022-12-17T01:23:03.724Z,91.86
2022-12-17T01:25:48.757Z,92.27
2022-12-17T01:28:41.161Z,91.88
2022-12-17T01:31:31.419Z,91.87
2022-12-17T01:34:19.425Z,91.92
2022-12-17T01:37:25.506Z,92.09
2022-12-17T01:40:13.850Z,91.93
2022-12-17T01:43:02.720Z,91.97
2022-12-17T01:45:57.371Z,91.33
2022-12-17T01:48:48.466Z,91.99
2022-12-17T01:51:34.502Z,91.52
2022-12-17T01:54:20.700Z,91.54
2022-12-17T01:57:06.026Z,91.61
2022-12-17T02:00:00.785Z,91.57
2022-12-17T02:02:47.147Z,91.64
2022-12-17T02:05:32.890Z,91.86
2022-12-17T02:08:34.484Z,91.60
2022-12-17T02:11:35.234Z,92.30
2022-12-17T02:14:35.663Z,91.78
2022-12-17T02:17:24.370Z,91.83
2022-12-17T02:20:27.658Z,91.77
2022-12-17T02:23:31.899Z,91.67
2022-12-17T02:26:27.806Z,92.21
2022-12-17T02:29:14.500Z,91.77
2022-12-17T02:32:03.451Z,91.86
2022-12-17T02:34:48.667Z,91.93
2022-12-17T02:37:34.257Z,91.64
2022-12-17T02:40:20.684Z,91.75
2022-12-17T02:43:08.001Z,91.29
2022-12-17T02:45:55.907Z,91.82
2022-12-17T02:48:42.735Z,91.49
2022-12-17T02:51:28.814Z,91.40
2022-12-17T02:54:14.011Z,91.16
2022-12-17T02:56:58.940Z,91.49
2022-12-17T02:59:44.086Z,91.17
2022-12-17T03:02:34.014Z,91.64
2022-12-17T03:05:43.370Z,91.53
2022-12-17T03:08:24.298Z,91.17
2022-12-17T03:11:09.209Z,91.38
2022-12-17T03:13:54.511Z,91.91
2022-12-17T03:16:43.258Z,91.35
2022-12-17T03:19:28.871Z,91.55
2022-12-17T03:22:14.754Z,91.85
2022-12-17T03:24:59.708Z,91.11
2022-12-17T03:27:44.849Z,91.53
2022-12-17T03:30:35.559Z,91.38
2022-12-17T03:33:21.394Z,91.27
2022-12-17T03:36:06.152Z,91.55
2022-12-17T03:38:50.876Z,91.23
2022-12-17T03:41:36.174Z,91.43
2022-12-17T03:44:20.890Z,91.03
2022-12-17T03:47:05.781Z,91.45
2022-12-17T03:49:50.864Z,91.68
2022-12-17T03:52:35.683Z,91.60
2022-12-17T03:55:24.995Z,91.90
2022-12-17T03:58:11.736Z,91.64
2022-12-17T04:00:56.634Z,91.89
2022-12-17T04:03:41.623Z,91.73
2022-12-17T04:06:43.727Z,91.66
2022-12-17T04:09:29.029Z,91.98
2022-12-17T04:12:13.748Z,92.30
2022-12-17T04:14:59.173Z,92.14
2022-12-17T04:17:43.983Z,92.12
2022-12-17T04:20:29.457Z,91.94
2022-12-17T04:23:14.386Z,92.33
2022-12-17T04:25:59.173Z,92.05
2022-12-17T04:28:43.943Z,92.31
2022-12-17T04:31:28.782Z,92.25
2022-12-17T04:34:13.921Z,92.24
2022-12-17T04:36:58.958Z,92.34
2022-12-17T04:39:43.743Z,92.56
2022-12-17T04:42:28.838Z,92.32
2022-12-17T04:45:13.515Z,92.09
2022-12-17T04:47:58.404Z,92.17
2022-12-17T04:50:43.331Z,92.13
2022-12-17T04:53:28.726Z,92.06
2022-12-17T04:56:14.420Z,92.30
2022-12-17T04:59:02.262Z,91.60
2022-12-17T05:01:47.364Z,91.89
2022-12-17T05:04:32.424Z,91.98
2022-12-17T05:07:20.179Z,91.99
2022-12-17T05:10:04.961Z,91.79
2022-12-17T05:12:49.751Z,91.77
2022-12-17T05:15:34.652Z,91.84
2022-12-17T05:18:26.921Z,91.62
2022-12-17T05:21:12.002Z,91.90
2022-12-17T05:23:56.931Z,91.87
2022-12-17T05:26:44.702Z,91.85
2022-12-17T05:29:29.995Z,91.39
2022-12-17T05:32:15.491Z,91.51
2022-12-17T05:35:00.798Z,91.60
2022-12-17T05:37:46.281Z,91.12
2022-12-17T05:40:31.512Z,91.70
2022-12-17T05:43:22.370Z,91.57
2022-12-17T05:46:07.950Z,91.52
2022-12-17T05:48:54.244Z,91.40
2022-12-17T05:51:39.911Z,92.07
2022-12-17T05:54:25.831Z,91.77
2022-12-17T05:57:11.502Z,91.53
2022-12-17T05:59:56.215Z,91.75
2022-12-17T06:02:41.803Z,91.94
2022-12-17T06:05:26.928Z,91.90
2022-12-17T06:08:11.866Z,91.75
2022-12-17T06:10:57.168Z,92.38
2022-12-17T06:13:42.338Z,91.71
2022-12-17T06:16:27.186Z,91.86
2022-12-17T06:19:12.411Z,91.74
2022-12-17T06:21:57.307Z,91.75
2022-12-17T06:24:45.983Z,91.70
2022-12-17T06:27:31.199Z,91.81
2022-12-17T06:30:18.925Z,91.93
2022-12-17T06:33:04.726Z,91.78
2022-12-17T06:35:50.074Z,91.93
2022-12-17T06:38:35.426Z,92.00
2022-12-17T06:41:20.778Z,91.79
2022-12-17T06:44:05.632Z,91.81
2022-12-17T06:46:50.451Z,91.82
2022-12-17T06:49:40.069Z,91.77
2022-12-17T06:52:24.787Z,91.80
2022-12-17T06:55:09.642Z,92.07
2022-12-17T06:57:54.546Z,92.18
2022-12-17T07:00:39.450Z,91.85
2022-12-17T07:03:24.830Z,91.84
2022-12-17T07:06:09.998Z,91.91
2022-12-17T07:08:55.074Z,91.85
2022-12-17T07:11:42.356Z,91.98
2022-12-17T07:14:27.549Z,91.91
2022-12-17T07:17:12.441Z,92.41
2022-12-17T07:19:57.504Z,92.29
2022-12-17T07:22:42.355Z,92.13
2022-12-17T07:25:27.244Z,91.94
2022-12-17T07:28:13.627Z,92.04
2022-12-17T07:30:59.476Z,92.22
2022-12-17T07:33:44.908Z,92.22
2022-12-17T07:36:29.949Z,91.88
2022-12-17T07:39:20.781Z,92.20
2022-12-17T07:42:05.947Z,92.26
2022-12-17T07:44:51.383Z,92.16
2022-12-17T07:47:36.122Z,91.93
2022-12-17T07:50:21.066Z,91.91
2022-12-17T07:53:23.231Z,92.03
2022-12-17T07:56:09.542Z,92.23
2022-12-17T07:58:57.391Z,92.06
2022-12-17T08:01:42.709Z,92.15
2022-12-17T08:04:27.885Z,92.09
2022-12-17T08:07:14.261Z,92.02
2022-12-17T08:09:59.783Z,92.13
2022-12-17T08:12:44.655Z,92.17
2022-12-17T08:15:29.764Z,92.19
2022-12-17T08:18:26.406Z,91.99
2022-12-17T08:21:12.351Z,92.31
2022-12-17T08:23:57.195Z,92.26
2022-12-17T08:26:47.357Z,92.08
2022-12-17T08:29:32.975Z,91.88
2022-12-17T08:32:17.794Z,92.38
2022-12-17T08:35:02.983Z,91.93
2022-12-17T08:37:48.950Z,91.68
2022-12-17T08:40:34.471Z,91.91
2022-12-17T08:43:19.245Z,91.70
2022-12-17T08:46:08.198Z,91.75
2022-12-17T08:48:54.030Z,91.48
2022-12-17T08:51:39.333Z,91.43
2022-12-17T08:54:24.326Z,91.08
2022-12-17T08:57:09.644Z,91.35
2022-12-17T08:59:54.758Z,90.63
2022-12-17T09:02:40.051Z,90.51
2022-12-17T09:05:25.910Z,90.75
2022-12-17T09:08:25.079Z,90.91
2022-12-17T09:11:13.726Z,90.91
2022-12-17T09:13:58.555Z,90.47
2022-12-17T09:16:43.794Z,90.24
2022-12-17T09:19:29.519Z,90.36
2022-12-17T09:22:14.501Z,90.52
2022-12-17T09:24:59.643Z,90.56
2022-12-17T09:27:45.008Z,90.52
2022-12-17T09:30:30.409Z,91.05
2022-12-17T09:33:15.558Z,90.97
2022-12-17T09:36:00.683Z,91.33
2022-12-17T09:38:45.696Z,91.57
2022-12-17T09:41:48.884Z,91.44
2022-12-17T09:44:37.139Z,91.89
2022-12-17T09:47:54.190Z,91.36
2022-12-17T09:50:39.563Z,91.21
2022-12-17T09:53:38.680Z,91.00
2022-12-17T09:56:25.143Z,91.00
2022-12-17T09:59:10.143Z,91.16
2022-12-17T10:01:55.281Z,91.59
2022-12-17T10:04:57.068Z,91.35
2022-12-17T10:07:45.343Z,90.72
2022-12-17T10:10:45.227Z,91.00
2022-12-17T10:13:41.802Z,90.75
2022-12-17T10:16:42.434Z,90.51
2022-12-17T10:19:35.423Z,90.64
2022-12-17T10:22:27.580Z,89.92
2022-12-17T10:25:12.914Z,89.17
2022-12-17T10:27:57.965Z,88.32
2022-12-17T10:31:04.287Z,88.71
2022-12-17T10:33:56.746Z,88.53
2022-12-17T10:36:44.168Z,89.38
2022-12-17T10:39:41.895Z,89.42
2022-12-17T10:42:47.602Z,89.68
2022-12-17T10:45:45.782Z,89.57
2022-12-17T10:48:46.713Z,89.29
2022-12-17T10:51:43.460Z,89.11
2022-12-17T10:54:48.705Z,88.84
2022-12-17T10:57:49.097Z,88.56
2022-12-17T11:00:36.881Z,89.19
2022-12-17T11:03:22.902Z,88.33
2022-12-17T11:06:12.519Z,88.39
2022-12-17T11:08:59.465Z,88.33
2022-12-17T11:11:44.952Z,88.67
2022-12-17T11:14:31.870Z,88.15
2022-12-17T11:17:19.235Z,88.38
2022-12-17T11:20:19.137Z,88.47
2022-12-17T11:23:08.859Z,88.83
2022-12-17T11:26:24.526Z,88.66
2022-12-17T11:29:09.567Z,88.77
2022-12-17T11:32:20.906Z,88.23
2022-12-17T11:35:47.749Z,88.35
2022-12-17T11:38:54.804Z,88.39
2022-12-17T11:41:49.312Z,87.73
2022-12-17T11:44:53.600Z,88.18
2022-12-17T11:48:19.367Z,88.27
2022-12-17T11:51:11.287Z,87.91
2022-12-17T11:54:16.874Z,87.82
2022-12-17T11:57:08.798Z,87.48
2022-12-17T12:00:06.710Z,88.12
2022-12-17T12:03:38.986Z,87.96
2022-12-17T12:06:39.789Z,87.82
2022-12-17T12:09:44.620Z,87.51
2022-12-17T12:12:53.696Z,87.58
2022-12-17T12:15:49.037Z,87.14
2022-12-17T12:18:48.972Z,87.64
2022-12-17T12:21:52.690Z,88.06
2022-12-17T12:24:43.671Z,87.35
2022-12-17T12:27:58.502Z,88.13
2022-12-17T12:30:52.792Z,87.73
2022-12-17T12:34:05.072Z,88.20
2022-12-17T12:36:51.293Z,87.76
2022-12-17T12:39:44.314Z,88.32
2022-12-17T12:42:51.806Z,88.21
2022-12-17T12:45:53.321Z,87.80
2022-12-17T12:49:06.871Z,88.07
2022-12-17T12:51:56.824Z,88.25
2022-12-17T12:55:09.984Z,88.59
2022-12-17T12:57:56.779Z,88.20
2022-12-17T13:00:44.861Z,88.04
2022-12-17T13:03:43.608Z,88.57
2022-12-17T13:06:12.500Z,88.02
2022-12-17T13:08:40.043Z,88.27
2022-12-17T13:11:29.572Z,87.71
2022-12-17T13:14:05.109Z,87.20
2022-12-17T13:16:36.385Z,88.16
2022-12-17T13:19:20.762Z,88.13
2022-12-17T13:21:47.988Z,87.60
2022-12-17T13:24:26.439Z,87.39
2022-12-17T13:26:53.608Z,87.42
2022-12-17T13:29:33.914Z,87.95
2022-12-17T13:32:00.465Z,88.08
2022-12-17T13:34:51.905Z,87.64
2022-12-17T13:37:29.092Z,88.15
2022-12-17T13:40:27.693Z,87.90
2022-12-17T13:42:54.182Z,87.67
2022-12-17T13:45:24.246Z,87.76
2022-12-17T13:47:56.581Z,87.94
2022-12-17T13:50:36.636Z,87.97
2022-12-17T13:53:15.353Z,88.08
2022-12-17T13:55:51.051Z,87.93
2022-12-17T13:58:31.410Z,88.59
2022-12-17T14:01:10.430Z,88.30
2022-12-17T14:04:05.731Z,88.42
2022-12-17T14:06:36.426Z,88.74
2022-12-17T14:09:03.688Z,88.65
2022-12-17T14:11:50.166Z,88.56
2022-12-17T14:14:31.760Z,88.61
2022-12-17T14:16:58.815Z,88.79
2022-12-17T14:19:27.068Z,88.94
2022-12-17T14:21:54.698Z,89.16
2022-12-17T14:24:26.962Z,89.41
2022-12-17T14:26:56.404Z,89.36
2022-12-17T14:29:23.877Z,89.19
2022-12-17T14:32:30.586Z,89.54
2022-12-17T14:35:00.613Z,89.59
2022-12-17T14:37:28.768Z,89.63
2022-12-17T14:40:05.559Z,89.27
2022-12-17T14:42:35.751Z,89.53
2022-12-17T14:45:06.899Z,89.10
2022-12-17T14:47:35.637Z,89.22
2022-12-17T14:50:25.114Z,89.53
2022-12-17T14:52:54.114Z,89.34
2022-12-17T14:55:55.289Z,89.70
2022-12-17T14:58:24.351Z,89.86
2022-12-17T15:01:04.177Z,89.96
2022-12-17T15:03:39.826Z,90.12
2022-12-17T15:06:08.595Z,90.25
2022-12-17T15:08:39.891Z,90.40
2022-12-17T15:11:12.069Z,90.22
2022-12-17T15:13:38.819Z,90.66
2022-12-17T15:16:05.703Z,90.80
2022-12-17T15:18:32.222Z,90.54
2022-12-17T15:20:59.336Z,90.37
2022-12-17T15:23:34.498Z,90.80
2022-12-17T15:26:01.613Z,90.94
2022-12-17T15:28:28.114Z,90.91
2022-12-17T15:30:54.792Z,90.84
2022-12-17T15:33:21.470Z,91.17
2022-12-17T15:35:48.071Z,90.84
2022-12-17T15:38:14.582Z,90.77
2022-12-17T15:40:41.971Z,90.87
2022-12-17T15:43:12.631Z,91.18
2022-12-17T15:45:48.120Z,90.97
2022-12-17T15:48:31.960Z,91.13
2022-12-17T15:50:58.363Z,90.97
2022-12-17T15:53:24.783Z,91.07
2022-12-17T15:55:59.482Z,91.02
2022-12-17T15:58:26.671Z,91.35
2022-12-17T16:00:53.137Z,91.20
2022-12-17T16:03:19.949Z,91.30
2022-12-17T16:05:46.530Z,91.59
2022-12-17T16:08:13.035Z,91.68
2022-12-17T16:10:39.852Z,91.61
2022-12-17T16:13:06.274Z,91.67
2022-12-17T16:15:33.161Z,91.68
2022-12-17T16:17:59.837Z,91.48
2022-12-17T16:20:26.241Z,91.29
2022-12-17T16:22:53.729Z,91.15
2022-12-17T16:25:20.316Z,91.13
2022-12-17T16:27:46.770Z,91.41
2022-12-17T16:30:14.098Z,91.54
2022-12-17T16:32:40.916Z,91.49
2022-12-17T16:35:07.686Z,91.45
2022-12-17T16:37:34.146Z,91.53
2022-12-17T16:40:00.928Z,91.45
2022-12-17T16:42:28.192Z,91.42
2022-12-17T16:44:54.798Z,91.47
2022-12-17T16:47:21.263Z,91.27
2022-12-17T16:49:50.311Z,91.24
2022-12-17T16:52:16.956Z,91.41
2022-12-17T16:54:43.454Z,91.29
2022-12-17T16:57:09.945Z,91.27
2022-12-17T16:59:36.466Z,91.31
2022-12-17T17:02:03.079Z,91.45
2022-12-17T17:04:29.966Z,91.23
2022-12-17T17:06:57.123Z,91.49
2022-12-17T17:09:24.741Z,91.27
2022-12-17T17:11:54.340Z,91.69
2022-12-17T17:14:20.747Z,91.85
2022-12-17T17:16:47.205Z,91.38
2022-12-17T17:19:13.713Z,91.74
2022-12-17T17:21:42.603Z,91.53
2022-12-17T17:24:20.762Z,91.66
2022-12-17T17:26:49.583Z,91.94
2022-12-17T17:29:16.781Z,92.08
2022-12-17T17:34:29.793Z,91.75
2022-12-17T17:36:56.517Z,91.92
2022-12-17T17:39:23.047Z,91.71
2022-12-17T17:41:49.508Z,91.55
2022-12-17T17:44:16.286Z,91.42
2022-12-17T17:46:42.861Z,91.65
2022-12-17T17:49:09.746Z,91.80
2022-12-17T17:52:11.311Z,91.61
2022-12-17T17:54:27.596Z,91.49
2022-12-17T17:56:55.307Z,91.85
2022-12-17T17:59:27.822Z,91.58
2022-12-17T18:02:00.703Z,91.90
2022-12-17T18:04:28.179Z,91.83
2022-12-17T18:09:41.252Z,91.79
2022-12-17T18:12:26.633Z,91.78
2022-12-17T18:15:13.315Z,91.73
2022-12-17T18:17:39.756Z,91.67
2022-12-17T18:20:06.774Z,91.62
2022-12-17T18:22:33.476Z,91.62
2022-12-17T18:24:59.937Z,92.21
2022-12-17T18:27:26.430Z,91.88
2022-12-17T18:29:52.910Z,91.92
2022-12-17T18:32:19.369Z,92.34
2022-12-17T18:34:46.005Z,91.89
2022-12-17T18:37:12.526Z,91.72
2022-12-17T18:39:39.073Z,91.68
2022-12-17T18:42:24.624Z,92.56
2022-12-17T18:44:51.091Z,92.12
2022-12-17T18:47:18.789Z,92.21
2022-12-17T18:49:45.483Z,92.32
2022-12-17T18:52:16.652Z,92.11
2022-12-17T18:54:43.762Z,92.56
2022-12-17T18:57:10.841Z,92.24
2022-12-17T18:59:37.519Z,92.27
2022-12-17T19:02:04.196Z,91.81
2022-12-17T19:04:32.752Z,92.56
2022-12-17T19:06:59.355Z,92.34
2022-12-17T19:09:31.257Z,92.43
2022-12-17T19:11:58.478Z,92.52
2022-12-17T19:14:25.741Z,92.49
2022-12-17T19:16:53.847Z,92.44
2022-12-17T19:19:21.256Z,92.60
2022-12-17T19:21:48.846Z,92.57
2022-12-17T19:24:17.654Z,92.89
2022-12-17T19:26:44.633Z,92.55
2022-12-17T19:29:13.166Z,92.23
2022-12-17T19:31:40.582Z,92.66
2022-12-17T19:34:10.741Z,92.63
2022-12-17T19:36:38.846Z,92.60
2022-12-17T19:39:08.310Z,92.74
2022-12-17T19:41:35.195Z,92.43
2022-12-17T19:44:07.022Z,92.62
2022-12-17T19:46:35.281Z,92.88
2022-12-17T19:49:02.389Z,92.62
2022-12-17T19:51:30.692Z,92.57
2022-12-17T19:54:00.742Z,92.70
2022-12-17T19:56:33.486Z,92.80
2022-12-17T19:59:02.412Z,92.30
2022-12-17T20:01:34.888Z,92.85
2022-12-17T20:04:01.794Z,92.31
2022-12-17T20:06:31.126Z,93.00
2022-12-17T20:08:58.871Z,92.78
2022-12-17T20:11:34.852Z,92.69
2022-12-17T20:14:05.041Z,93.15
2022-12-17T20:16:35.583Z,92.31
2022-12-17T20:19:04.660Z,92.94
2022-12-17T20:21:31.215Z,93.12
2022-12-17T20:23:58.000Z,92.75
2022-12-17T20:26:25.272Z,92.75
2022-12-17T20:28:51.771Z,93.07
2022-12-17T20:31:18.439Z,92.96
2022-12-17T20:33:45.155Z,93.03
2022-12-17T20:36:17.610Z,92.84
2022-12-17T20:38:45.324Z,93.16
2022-12-17T20:41:15.623Z,93.22
2022-12-17T20:43:42.141Z,92.91
2022-12-17T20:46:09.854Z,93.28
2022-12-17T20:48:38.154Z,93.52
2022-12-17T20:51:21.296Z,93.20
2022-12-17T20:53:52.467Z,92.63
2022-12-17T20:56:23.296Z,92.95
2022-12-17T20:58:55.113Z,93.24
2022-12-17T21:01:26.826Z,93.27
2022-12-17T21:03:55.063Z,92.76
2022-12-17T21:06:27.556Z,93.08
2022-12-17T21:08:55.235Z,93.15
2022-12-17T21:11:27.723Z,92.97
2022-12-17T21:13:55.128Z,93.00
2022-12-17T21:16:27.768Z,93.14
2022-12-17T21:18:55.402Z,92.90
2022-12-17T21:21:24.501Z,93.10
2022-12-17T21:23:51.662Z,92.73
2022-12-17T21:26:26.424Z,92.78
2022-12-17T21:28:54.599Z,92.95
2022-12-17T21:31:27.017Z,92.95
2022-12-17T21:33:57.960Z,92.90
2022-12-17T21:36:28.194Z,92.77
2022-12-17T21:38:55.139Z,93.22
2022-12-17T21:41:28.256Z,93.26
2022-12-17T21:43:57.079Z,92.84
2022-12-17T21:46:26.051Z,92.72
2022-12-17T21:48:53.759Z,92.86
2022-12-17T21:51:21.016Z,93.09
2022-12-17T21:53:48.967Z,92.76
2022-12-17T21:56:17.993Z,93.26
2022-12-17T21:58:46.592Z,93.08
2022-12-17T22:01:19.728Z,93.22
2022-12-17T22:03:52.513Z,92.86
2022-12-17T22:06:26.407Z,92.74
2022-12-17T22:09:11.294Z,92.58
2022-12-17T22:12:10.896Z,92.74
2022-12-17T22:14:37.329Z,92.69
2022-12-17T22:17:04.324Z,92.55
2022-12-17T22:19:30.856Z,92.53
2022-12-17T22:21:57.875Z,92.74
2022-12-17T22:24:25.261Z,92.93
2022-12-17T22:26:59.871Z,92.35
2022-12-17T22:29:46.505Z,92.88
2022-12-17T22:32:34.306Z,92.60
2022-12-17T22:35:01.408Z,92.61
2022-12-17T22:41:00.381Z,93.23
2022-12-17T22:42:48.366Z,92.93
2022-12-17T22:44:42.340Z,93.22
2022-12-17T22:46:16.048Z,92.82
2022-12-17T22:48:42.733Z,92.86
2022-12-17T22:51:12.555Z,93.06
2022-12-17T22:53:46.960Z,93.43
2022-12-17T22:56:37.248Z,93.67
2022-12-17T22:59:24.838Z,92.88
2022-12-17T23:01:51.361Z,93.00
2022-12-17T23:04:18.013Z,93.33
2022-12-17T23:06:45.889Z,93.49
2022-12-17T23:09:13.597Z,93.52
2022-12-17T23:11:40.161Z,93.45
2022-12-17T23:14:08.745Z,93.46
2022-12-17T23:16:38.663Z,93.05
2022-12-17T23:19:06.238Z,93.31
2022-12-17T23:21:32.975Z,93.58
2022-12-17T23:23:59.551Z,92.85
2022-12-17T23:26:28.730Z,93.37
2022-12-17T23:29:01.703Z,93.30
2022-12-17T23:31:32.384Z,93.33
2022-12-17T23:33:59.227Z,93.58
2022-12-17T23:36:26.627Z,93.70
2022-12-17T23:38:55.625Z,93.10
2022-12-17T23:41:25.138Z,93.57
2022-12-17T23:43:51.941Z,93.53
2022-12-17T23:46:19.573Z,93.34
2022-12-17T23:48:47.527Z,93.54
2022-12-17T23:51:15.895Z,93.64
2022-12-17T23:53:43.463Z,93.21
2022-12-17T23:56:11.466Z,93.63
2022-12-17T23:58:39.698Z,93.75
